createdAt,value
2018-05-11T00:00:44.099Z,0
2018-05-11T00:01:45.504Z,0
2018-05-11T00:02:46.902Z,0
2018-05-11T00:03:48.308Z,0
2018-05-11T00:04:49.707Z,0
2018-05-11T00:05:51.091Z,0
2018-05-11T00:06:52.476Z,0
2018-05-11T00:07:53.879Z,0
2018-05-11T00:08:55.272Z,0
2018-05-11T00:09:56.668Z,0
2018-05-11T00:10:58.067Z,0
2018-05-11T00:11:59.474Z,0
2018-05-11T00:13:00.862Z,0
2018-05-11T00:14:02.303Z,0
2018-05-11T00:15:03.713Z,0
2018-05-11T00:16:05.093Z,0
2018-05-11T00:17:06.490Z,0
2018-05-11T00:18:07.887Z,0
2018-05-11T00:19:09.284Z,0
2018-05-11T00:20:10.692Z,0
2018-05-11T00:21:12.083Z,0
2018-05-11T00:22:13.463Z,0
2018-05-11T00:23:14.858Z,0
2018-05-11T00:24:16.295Z,0
2018-05-11T00:25:17.658Z,0
2018-05-11T00:26:19.044Z,0
2018-05-11T00:27:20.442Z,0
2018-05-11T00:28:21.851Z,0
2018-05-11T00:29:23.235Z,0
2018-05-11T00:30:24.629Z,0
2018-05-11T00:31:26.027Z,0
2018-05-11T00:32:27.413Z,0
2018-05-11T00:33:28.804Z,0
2018-05-11T00:34:30.205Z,0
2018-05-11T00:35:31.607Z,0
2018-05-11T00:36:32.987Z,0
2018-05-11T00:37:36.117Z,0
2018-05-11T00:38:37.504Z,0
2018-05-11T00:39:38.885Z,0
2018-05-11T00:40:40.276Z,0
2018-05-11T00:41:41.663Z,0
2018-05-11T00:42:43.060Z,0
2018-05-11T00:43:44.437Z,0
2018-05-11T00:44:45.824Z,0
2018-05-11T00:45:47.223Z,0
2018-05-11T00:46:48.631Z,0
2018-05-11T00:47:50.003Z,0
2018-05-11T00:48:51.396Z,0
2018-05-11T00:49:52.779Z,0
2018-05-11T00:50:54.170Z,0
2018-05-11T00:51:55.562Z,0
2018-05-11T00:52:56.956Z,0
2018-05-11T00:53:58.353Z,0
2018-05-11T00:54:59.768Z,0
2018-05-11T00:56:01.151Z,0
2018-05-11T00:57:02.552Z,0
2018-05-11T00:58:03.942Z,0
2018-05-11T00:59:05.356Z,0
2018-05-11T01:00:06.749Z,0
2018-05-11T01:01:08.134Z,0
2018-05-11T01:02:09.511Z,0
2018-05-11T01:03:10.904Z,0
2018-05-11T01:04:12.303Z,0
2018-05-11T01:05:13.718Z,0
2018-05-11T01:06:15.114Z,0
2018-05-11T01:07:16.527Z,0
2018-05-11T01:08:17.935Z,0
2018-05-11T01:09:19.784Z,0
2018-05-11T01:10:21.182Z,0
2018-05-11T01:11:22.582Z,0
2018-05-11T01:12:23.986Z,0
2018-05-11T01:13:25.385Z,0
2018-05-11T01:14:26.882Z,0
2018-05-11T01:15:28.298Z,0
2018-05-11T01:16:29.677Z,0
2018-05-11T01:17:31.068Z,0
2018-05-11T01:18:32.493Z,0
2018-05-11T01:19:34.824Z,0
2018-05-11T01:20:36.219Z,0
2018-05-11T01:21:37.605Z,0
2018-05-11T01:22:38.997Z,0
2018-05-11T01:23:40.401Z,0
2018-05-11T01:24:41.815Z,0
2018-05-11T01:25:43.255Z,0
2018-05-11T01:26:44.666Z,0
2018-05-11T01:27:46.075Z,0
2018-05-11T01:28:47.515Z,0
2018-05-11T01:29:48.916Z,0
2018-05-11T01:30:50.323Z,0
2018-05-11T01:31:51.734Z,0
2018-05-11T01:32:53.202Z,0
2018-05-11T01:33:54.626Z,0
2018-05-11T01:34:56.018Z,0
2018-05-11T01:35:57.415Z,0
2018-05-11T01:36:58.826Z,0
2018-05-11T01:38:00.218Z,0
2018-05-11T01:39:01.628Z,0
2018-05-11T01:40:03.024Z,0
2018-05-11T01:41:05.156Z,0
2018-05-11T01:42:06.559Z,0
2018-05-11T01:43:07.968Z,0
2018-05-11T01:44:09.366Z,0
2018-05-11T01:45:10.771Z,0
2018-05-11T01:46:12.141Z,0
2018-05-11T01:47:13.539Z,0
2018-05-11T01:48:14.917Z,0
2018-05-11T01:49:16.320Z,0
2018-05-11T01:50:17.695Z,0
2018-05-11T01:51:19.095Z,0
2018-05-11T01:52:20.477Z,0
2018-05-11T01:53:21.881Z,0
2018-05-11T01:54:23.273Z,0
2018-05-11T01:55:24.654Z,0
2018-05-11T01:56:26.032Z,0
2018-05-11T01:57:27.411Z,0
2018-05-11T01:58:28.804Z,0
2018-05-11T01:59:30.198Z,0
2018-05-11T02:00:31.582Z,0
2018-05-11T02:01:32.968Z,0
2018-05-11T02:02:34.365Z,0
2018-05-11T02:03:35.752Z,0
2018-05-11T02:04:37.140Z,0
2018-05-11T02:05:38.524Z,0
2018-05-11T02:06:39.918Z,0
2018-05-11T02:07:41.294Z,0
2018-05-11T02:08:42.713Z,0
2018-05-11T02:09:44.106Z,0
2018-05-11T02:10:45.509Z,0
2018-05-11T02:11:46.885Z,0
2018-05-11T02:12:48.288Z,0
2018-05-11T02:13:49.674Z,0
2018-05-11T02:14:51.067Z,0
2018-05-11T02:15:52.445Z,0
2018-05-11T02:16:53.837Z,0
2018-05-11T02:17:55.236Z,0
2018-05-11T02:18:56.629Z,0
2018-05-11T02:19:58.028Z,0
2018-05-11T02:20:59.411Z,0
2018-05-11T02:22:00.805Z,0
2018-05-11T02:23:02.845Z,0
2018-05-11T02:24:04.239Z,0
2018-05-11T02:25:05.633Z,0
2018-05-11T02:26:07.026Z,0
2018-05-11T02:27:08.421Z,0
2018-05-11T02:28:09.815Z,0
2018-05-11T02:29:11.201Z,0
2018-05-11T02:30:12.596Z,0
2018-05-11T02:31:13.974Z,0
2018-05-11T02:32:15.354Z,0
2018-05-11T02:33:16.731Z,0
2018-05-11T02:34:18.123Z,0
2018-05-11T02:35:19.518Z,0
2018-05-11T02:36:20.912Z,0
2018-05-11T02:37:22.288Z,0
2018-05-11T02:38:23.676Z,0
2018-05-11T02:39:25.075Z,0
2018-05-11T02:40:26.460Z,0
2018-05-11T02:41:27.847Z,0
2018-05-11T02:42:29.232Z,0
2018-05-11T02:43:30.624Z,0
2018-05-11T02:44:32.013Z,0
2018-05-11T02:45:33.403Z,0
2018-05-11T02:46:34.796Z,0
2018-05-11T02:47:36.191Z,0
2018-05-11T02:48:37.571Z,0
2018-05-11T02:49:38.973Z,0
2018-05-11T02:50:40.447Z,0
2018-05-11T02:51:41.749Z,0
2018-05-11T02:52:43.147Z,0
2018-05-11T02:53:44.529Z,0
2018-05-11T02:54:45.928Z,0
2018-05-11T02:55:47.319Z,0
2018-05-11T02:56:48.711Z,0
2018-05-11T02:57:50.099Z,0
2018-05-11T02:58:51.485Z,0
2018-05-11T02:59:52.870Z,0
2018-05-11T03:00:54.296Z,0
2018-05-11T03:01:55.675Z,0
2018-05-11T03:02:57.078Z,0
2018-05-11T03:03:58.472Z,0
2018-05-11T03:04:59.861Z,0
2018-05-11T03:06:01.262Z,0
2018-05-11T03:07:02.654Z,0
2018-05-11T03:08:04.686Z,0
2018-05-11T03:09:06.060Z,0
2018-05-11T03:10:07.446Z,0
2018-05-11T03:11:08.838Z,0
2018-05-11T03:12:10.222Z,0
2018-05-11T03:13:11.610Z,0
2018-05-11T03:14:13.765Z,0
2018-05-11T03:15:15.178Z,0
2018-05-11T03:16:16.563Z,0
2018-05-11T03:17:17.957Z,0
2018-05-11T03:18:19.371Z,0
2018-05-11T03:19:20.741Z,0
2018-05-11T03:20:22.140Z,0
2018-05-11T03:21:23.518Z,0
2018-05-11T03:22:24.905Z,0
2018-05-11T03:23:26.301Z,0
2018-05-11T03:24:27.699Z,0
2018-05-11T03:25:29.079Z,0
2018-05-11T03:26:30.465Z,0
2018-05-11T03:27:31.857Z,0
2018-05-11T03:28:33.247Z,0
2018-05-11T03:29:34.641Z,0
2018-05-11T03:30:36.023Z,0
2018-05-11T03:31:39.082Z,0
2018-05-11T03:32:39.535Z,0
2018-05-11T03:33:40.934Z,0
2018-05-11T03:34:42.311Z,0
2018-05-11T03:35:43.694Z,0
2018-05-11T03:36:45.096Z,0
2018-05-11T03:37:46.479Z,0
2018-05-11T03:38:47.872Z,0
2018-05-11T03:39:49.268Z,0
2018-05-11T03:40:50.652Z,0
2018-05-11T03:41:52.045Z,0
2018-05-11T03:42:53.431Z,0
2018-05-11T03:43:54.832Z,0
2018-05-11T03:44:56.209Z,0
2018-05-11T03:45:57.610Z,0
2018-05-11T03:46:59.001Z,0
2018-05-11T03:48:00.947Z,0
2018-05-11T03:49:02.335Z,0
2018-05-11T03:50:03.733Z,0
2018-05-11T03:51:05.133Z,0
2018-05-11T03:52:06.519Z,5
2018-05-11T03:53:07.903Z,5
2018-05-11T03:54:09.282Z,5
2018-05-11T03:55:10.682Z,0
2018-05-11T03:56:12.060Z,0
2018-05-11T03:57:13.449Z,0
2018-05-11T03:58:14.844Z,0
2018-05-11T03:59:16.224Z,0
2018-05-11T04:00:17.619Z,5
2018-05-11T04:01:19.008Z,5
2018-05-11T04:02:20.386Z,5
2018-05-11T04:03:21.786Z,10
2018-05-11T04:04:23.188Z,10
2018-05-11T04:05:24.579Z,5
2018-05-11T04:06:26.683Z,5
2018-05-11T04:07:28.142Z,5
2018-05-11T04:08:29.474Z,5
2018-05-11T04:09:30.862Z,5
2018-05-11T04:10:32.242Z,5
2018-05-11T04:11:33.658Z,5
2018-05-11T04:12:35.809Z,5
2018-05-11T04:13:37.199Z,5
2018-05-11T04:14:38.604Z,5
2018-05-11T04:15:40.005Z,5
2018-05-11T04:16:41.395Z,5
2018-05-11T04:17:42.809Z,10
2018-05-11T04:18:44.235Z,10
2018-05-11T04:19:46.141Z,10
2018-05-11T04:20:47.592Z,10
2018-05-11T04:21:48.958Z,10
2018-05-11T04:22:50.366Z,10
2018-05-11T04:23:51.789Z,10
2018-05-11T04:24:53.199Z,10
2018-05-11T04:25:54.619Z,10
2018-05-11T04:26:56.006Z,10
2018-05-11T04:27:57.414Z,10
2018-05-11T04:28:58.809Z,10
2018-05-11T04:30:00.223Z,10
2018-05-11T04:31:01.664Z,10
2018-05-11T04:32:03.058Z,10
2018-05-11T04:33:04.454Z,10
2018-05-11T04:34:05.861Z,10
2018-05-11T04:35:07.266Z,10
2018-05-11T04:36:08.679Z,10
2018-05-11T04:37:10.076Z,15
2018-05-11T04:38:11.435Z,15
2018-05-11T04:39:12.859Z,10
2018-05-11T04:40:14.255Z,10
2018-05-11T04:41:15.643Z,10
2018-05-11T04:42:17.021Z,10
2018-05-11T04:43:18.419Z,10
2018-05-11T04:44:19.803Z,10
2018-05-11T04:45:21.207Z,10
2018-05-11T04:46:22.548Z,10
2018-05-11T04:47:23.939Z,10
2018-05-11T04:48:25.335Z,10
2018-05-11T04:49:26.750Z,10
2018-05-11T04:50:28.146Z,10
2018-05-11T04:51:29.523Z,10
2018-05-11T04:52:30.920Z,5
2018-05-11T04:53:32.310Z,5
2018-05-11T04:54:33.706Z,5
2018-05-11T04:55:35.094Z,5
2018-05-11T04:56:36.488Z,10
2018-05-11T04:57:37.871Z,10
2018-05-11T04:58:39.256Z,15
2018-05-11T04:59:40.652Z,20
2018-05-11T05:00:42.026Z,20
2018-05-11T05:01:43.423Z,20
2018-05-11T05:02:44.800Z,25
2018-05-11T05:03:46.207Z,20
2018-05-11T05:04:47.583Z,20
2018-05-11T05:05:48.987Z,20
2018-05-11T05:06:50.369Z,20
2018-05-11T05:07:51.763Z,20
2018-05-11T05:08:53.150Z,20
2018-05-11T05:09:54.553Z,20
2018-05-11T05:10:55.945Z,25
2018-05-11T05:11:57.331Z,25
2018-05-11T05:12:58.725Z,20
2018-05-11T05:14:00.111Z,20
2018-05-11T05:15:01.509Z,15
2018-05-11T05:16:02.902Z,20
2018-05-11T05:17:04.298Z,15
2018-05-11T05:18:05.684Z,15
2018-05-11T05:19:07.108Z,15
2018-05-11T05:20:08.470Z,15
2018-05-11T05:21:09.872Z,15
2018-05-11T05:22:11.266Z,15
2018-05-11T05:23:13.390Z,10
2018-05-11T05:24:14.780Z,10
2018-05-11T05:25:16.176Z,10
2018-05-11T05:26:17.554Z,10
2018-05-11T05:27:18.938Z,15
2018-05-11T05:28:20.336Z,15
2018-05-11T05:29:21.728Z,15
2018-05-11T05:30:23.115Z,15
2018-05-11T05:31:24.512Z,15
2018-05-11T05:32:25.883Z,15
2018-05-11T05:33:27.291Z,20
2018-05-11T05:34:28.681Z,20
2018-05-11T05:35:30.067Z,20
2018-05-11T05:36:31.463Z,25
2018-05-11T05:37:32.858Z,30
2018-05-11T05:38:34.249Z,40
2018-05-11T05:39:35.645Z,40
2018-05-11T05:40:37.042Z,40
2018-05-11T05:41:38.431Z,40
2018-05-11T05:42:39.827Z,40
2018-05-11T05:43:41.216Z,40
2018-05-11T05:44:42.606Z,40
2018-05-11T05:45:44.007Z,40
2018-05-11T05:46:45.382Z,35
2018-05-11T05:47:46.765Z,35
2018-05-11T05:48:48.148Z,35
2018-05-11T05:49:49.542Z,40
2018-05-11T05:50:50.936Z,40
2018-05-11T05:51:52.326Z,45
2018-05-11T05:52:53.713Z,45
2018-05-11T05:53:55.118Z,45
2018-05-11T05:54:56.527Z,45
2018-05-11T05:55:57.903Z,45
2018-05-11T05:56:59.298Z,45
2018-05-11T05:58:00.689Z,45
2018-05-11T05:59:02.100Z,45
2018-05-11T06:00:03.499Z,45
2018-05-11T06:01:04.909Z,50
2018-05-11T06:02:06.319Z,45
2018-05-11T06:03:07.709Z,45
2018-05-11T06:04:09.101Z,55
2018-05-11T06:05:10.493Z,65
2018-05-11T06:06:11.893Z,70
2018-05-11T06:07:13.276Z,60
2018-05-11T06:08:14.718Z,50
2018-05-11T06:09:16.058Z,55
2018-05-11T06:10:17.461Z,60
2018-05-11T06:11:18.854Z,65
2018-05-11T06:12:20.239Z,65
2018-05-11T06:13:21.647Z,70
2018-05-11T06:14:23.044Z,70
2018-05-11T06:15:24.435Z,70
2018-05-11T06:16:25.849Z,80
2018-05-11T06:17:27.250Z,80
2018-05-11T06:18:28.651Z,80
2018-05-11T06:19:30.056Z,75
2018-05-11T06:20:31.447Z,75
2018-05-11T06:21:32.834Z,75
2018-05-11T06:22:34.227Z,75
2018-05-11T06:23:35.610Z,80
2018-05-11T06:24:36.998Z,80
2018-05-11T06:25:38.384Z,75
2018-05-11T06:26:39.782Z,75
2018-05-11T06:27:41.160Z,75
2018-05-11T06:28:42.559Z,70
2018-05-11T06:29:43.948Z,65
2018-05-11T06:30:45.350Z,70
2018-05-11T06:31:46.724Z,65
2018-05-11T06:32:48.124Z,55
2018-05-11T06:33:49.523Z,50
2018-05-11T06:34:50.907Z,50
2018-05-11T06:35:52.306Z,60
2018-05-11T06:36:53.696Z,60
2018-05-11T06:37:55.091Z,70
2018-05-11T06:38:56.490Z,80
2018-05-11T06:39:57.891Z,75
2018-05-11T06:40:59.279Z,75
2018-05-11T06:42:00.665Z,70
2018-05-11T06:43:02.059Z,75
2018-05-11T06:44:03.459Z,75
2018-05-11T06:45:04.845Z,80
2018-05-11T06:46:06.280Z,80
2018-05-11T06:47:07.612Z,80
2018-05-11T06:48:08.999Z,70
2018-05-11T06:49:10.396Z,75
2018-05-11T06:50:11.788Z,80
2018-05-11T06:51:13.202Z,75
2018-05-11T06:52:14.596Z,65
2018-05-11T06:53:16.002Z,65
2018-05-11T06:54:17.399Z,70
2018-05-11T06:55:18.792Z,70
2018-05-11T06:56:20.178Z,80
2018-05-11T06:57:21.582Z,75
2018-05-11T06:58:22.988Z,70
2018-05-11T06:59:24.371Z,60
2018-05-11T07:00:25.793Z,60
2018-05-11T07:01:27.279Z,55
2018-05-11T07:02:28.578Z,50
2018-05-11T07:03:29.962Z,50
2018-05-11T07:04:31.403Z,50
2018-05-11T07:05:32.786Z,55
2018-05-11T07:06:34.223Z,60
2018-05-11T07:07:35.663Z,55
2018-05-11T07:08:37.029Z,55
2018-05-11T07:09:38.435Z,60
2018-05-11T07:10:39.864Z,70
2018-05-11T07:11:41.235Z,70
2018-05-11T07:12:42.655Z,70
2018-05-11T07:13:44.054Z,70
2018-05-11T07:14:45.457Z,70
2018-05-11T07:15:46.866Z,65
2018-05-11T07:16:48.244Z,65
2018-05-11T07:17:49.737Z,70
2018-05-11T07:18:51.082Z,80
2018-05-11T07:19:52.476Z,85
2018-05-11T07:20:54.604Z,85
2018-05-11T07:21:55.993Z,85
2018-05-11T07:22:57.407Z,85
2018-05-11T07:23:58.806Z,80
2018-05-11T07:25:00.192Z,85
2018-05-11T07:26:01.578Z,85
2018-05-11T07:27:02.973Z,80
2018-05-11T07:28:04.361Z,85
2018-05-11T07:29:05.757Z,95
2018-05-11T07:30:07.152Z,110
2018-05-11T07:31:08.545Z,105
2018-05-11T07:32:09.936Z,110
2018-05-11T07:33:11.354Z,110
2018-05-11T07:34:12.748Z,115
2018-05-11T07:35:14.146Z,115
2018-05-11T07:36:15.536Z,125
2018-05-11T07:37:16.943Z,120
2018-05-11T07:38:18.335Z,130
2018-05-11T07:39:19.733Z,155
2018-05-11T07:40:21.132Z,150
2018-05-11T07:41:22.522Z,125
2018-05-11T07:42:23.923Z,115
2018-05-11T07:43:25.430Z,105
2018-05-11T07:44:26.671Z,105
2018-05-11T07:45:28.056Z,85
2018-05-11T07:46:29.453Z,80
2018-05-11T07:47:30.841Z,80
2018-05-11T07:48:32.259Z,75
2018-05-11T07:49:33.654Z,70
2018-05-11T07:50:35.045Z,70
2018-05-11T07:51:36.451Z,70
2018-05-11T07:52:37.821Z,70
2018-05-11T07:53:39.217Z,65
2018-05-11T07:54:40.609Z,65
2018-05-11T07:55:41.999Z,75
2018-05-11T07:56:43.384Z,80
2018-05-11T07:57:44.787Z,90
2018-05-11T07:58:46.184Z,90
2018-05-11T07:59:47.593Z,90
2018-05-11T08:00:48.977Z,95
2018-05-11T08:01:50.369Z,100
2018-05-11T08:02:52.566Z,90
2018-05-11T08:03:54.047Z,95
2018-05-11T08:04:55.304Z,100
2018-05-11T08:05:56.710Z,105
2018-05-11T08:06:58.122Z,110
2018-05-11T08:07:59.514Z,110
2018-05-11T08:09:00.915Z,105
2018-05-11T08:10:02.312Z,85
2018-05-11T08:11:03.712Z,80
2018-05-11T08:12:05.133Z,80
2018-05-11T08:13:06.527Z,80
2018-05-11T08:14:07.961Z,75
2018-05-11T08:15:09.336Z,70
2018-05-11T08:16:10.732Z,60
2018-05-11T08:17:12.125Z,65
2018-05-11T08:18:13.532Z,75
2018-05-11T08:19:14.965Z,65
2018-05-11T08:20:16.370Z,70
2018-05-11T08:21:17.854Z,75
2018-05-11T08:22:19.214Z,65
2018-05-11T08:23:20.618Z,60
2018-05-11T08:24:22.014Z,65
2018-05-11T08:25:23.412Z,65
2018-05-11T08:26:24.846Z,65
2018-05-11T08:27:26.246Z,65
2018-05-11T08:28:27.643Z,65
2018-05-11T08:29:29.038Z,70
2018-05-11T08:30:30.430Z,70
2018-05-11T08:31:31.820Z,75
2018-05-11T08:32:33.217Z,80
2018-05-11T08:33:34.628Z,85
2018-05-11T08:34:36.518Z,85
2018-05-11T08:35:37.911Z,85
2018-05-11T08:36:39.300Z,85
2018-05-11T08:37:40.698Z,85
2018-05-11T08:38:42.088Z,95
2018-05-11T08:39:43.523Z,90
2018-05-11T08:40:44.922Z,90
2018-05-11T08:41:46.320Z,95
2018-05-11T08:42:47.710Z,105
2018-05-11T08:43:49.110Z,110
2018-05-11T08:44:50.509Z,105
2018-05-11T08:45:51.917Z,100
2018-05-11T08:46:53.349Z,105
2018-05-11T08:47:54.767Z,115
2018-05-11T08:48:56.164Z,110
2018-05-11T08:49:57.583Z,110
2018-05-11T08:50:58.967Z,110
2018-05-11T08:52:00.465Z,90
2018-05-11T08:53:01.875Z,100
2018-05-11T08:54:03.287Z,90
2018-05-11T08:55:04.684Z,90
2018-05-11T08:56:06.078Z,95
2018-05-11T08:57:07.538Z,100
2018-05-11T08:58:08.878Z,95
2018-05-11T08:59:10.262Z,90
2018-05-11T09:00:11.669Z,85
2018-05-11T09:01:13.060Z,85
2018-05-11T09:02:14.462Z,85
2018-05-11T09:03:15.862Z,85
2018-05-11T09:04:17.254Z,85
2018-05-11T09:05:18.650Z,95
2018-05-11T09:06:22.800Z,100
2018-05-11T09:07:24.275Z,95
2018-05-11T09:08:25.687Z,90
2018-05-11T09:09:27.063Z,85
2018-05-11T09:10:28.459Z,90
2018-05-11T09:11:29.882Z,95
2018-05-11T09:12:31.227Z,95
2018-05-11T09:13:32.636Z,90
2018-05-11T09:14:34.033Z,85
2018-05-11T09:15:35.411Z,80
2018-05-11T09:16:36.824Z,75
2018-05-11T09:17:38.228Z,75
2018-05-11T09:18:39.608Z,85
2018-05-11T09:19:41.013Z,80
2018-05-11T09:20:42.435Z,75
2018-05-11T09:21:43.831Z,70
2018-05-11T09:22:45.214Z,75
2018-05-11T09:23:46.619Z,85
2018-05-11T09:24:48.018Z,85
2018-05-11T09:25:49.408Z,90
2018-05-11T09:26:50.814Z,85
2018-05-11T09:27:52.208Z,70
2018-05-11T09:28:53.604Z,60
2018-05-11T09:29:54.992Z,55
2018-05-11T09:30:56.407Z,50
2018-05-11T09:31:57.819Z,55
2018-05-11T09:32:59.214Z,55
2018-05-11T09:34:00.607Z,65
2018-05-11T09:35:02.001Z,75
2018-05-11T09:36:03.403Z,90
2018-05-11T09:37:04.833Z,100
2018-05-11T09:38:06.182Z,105
2018-05-11T09:39:07.577Z,100
2018-05-11T09:40:08.962Z,95
2018-05-11T09:41:10.370Z,95
2018-05-11T09:42:11.765Z,100
2018-05-11T09:43:13.156Z,100
2018-05-11T09:44:14.549Z,105
2018-05-11T09:45:15.960Z,110
2018-05-11T09:46:17.365Z,120
2018-05-11T09:47:18.760Z,120
2018-05-11T09:48:20.169Z,120
2018-05-11T09:49:21.623Z,120
2018-05-11T09:50:22.993Z,125
2018-05-11T09:51:24.403Z,125
2018-05-11T09:52:25.799Z,125
2018-05-11T09:53:27.206Z,115
2018-05-11T09:54:28.628Z,100
2018-05-11T09:55:30.013Z,90
2018-05-11T09:56:31.412Z,85
2018-05-11T09:57:32.816Z,85
2018-05-11T09:58:34.217Z,85
2018-05-11T09:59:35.602Z,90
2018-05-11T10:00:36.995Z,100
2018-05-11T10:01:38.407Z,100
2018-05-11T10:02:39.802Z,100
2018-05-11T10:03:41.208Z,100
2018-05-11T10:04:42.596Z,100
2018-05-11T10:05:43.982Z,95
2018-05-11T10:06:45.384Z,100
2018-05-11T10:07:46.792Z,100
2018-05-11T10:08:48.168Z,95
2018-05-11T10:09:50.267Z,85
2018-05-11T10:10:51.659Z,75
2018-05-11T10:11:53.053Z,70
2018-05-11T10:12:54.471Z,65
2018-05-11T10:13:55.861Z,70
2018-05-11T10:14:57.252Z,75
2018-05-11T10:15:58.639Z,75
2018-05-11T10:17:00.032Z,75
2018-05-11T10:18:01.431Z,70
2018-05-11T10:19:02.825Z,70
2018-05-11T10:20:04.225Z,70
2018-05-11T10:21:05.670Z,65
2018-05-11T10:22:07.091Z,70
2018-05-11T10:23:08.476Z,70
2018-05-11T10:24:09.860Z,70
2018-05-11T10:25:11.848Z,70
2018-05-11T10:26:13.245Z,70
2018-05-11T10:27:14.666Z,70
2018-05-11T10:28:16.060Z,70
2018-05-11T10:29:17.455Z,65
2018-05-11T10:30:18.865Z,70
2018-05-11T10:31:20.258Z,70
2018-05-11T10:32:21.653Z,75
2018-05-11T10:33:23.089Z,75
2018-05-11T10:34:24.469Z,75
2018-05-11T10:35:25.818Z,80
2018-05-11T10:36:27.222Z,80
2018-05-11T10:37:28.608Z,80
2018-05-11T10:38:29.996Z,80
2018-05-11T10:39:31.408Z,85
2018-05-11T10:40:32.791Z,85
2018-05-11T10:41:34.204Z,85
2018-05-11T10:42:35.588Z,85
2018-05-11T10:43:36.979Z,80
2018-05-11T10:44:38.369Z,85
2018-05-11T10:45:39.772Z,85
2018-05-11T10:46:41.167Z,80
2018-05-11T10:47:42.567Z,75
2018-05-11T10:48:44.022Z,80
2018-05-11T10:49:45.354Z,90
2018-05-11T10:50:46.759Z,105
2018-05-11T10:51:48.167Z,110
2018-05-11T10:52:49.556Z,115
2018-05-11T10:53:50.963Z,120
2018-05-11T10:54:52.357Z,125
2018-05-11T10:55:53.755Z,125
2018-05-11T10:56:55.154Z,125
2018-05-11T10:57:56.561Z,120
2018-05-11T10:58:57.954Z,125
2018-05-11T10:59:59.360Z,130
2018-05-11T11:01:00.771Z,135
2018-05-11T11:02:02.164Z,130
2018-05-11T11:03:03.561Z,135
2018-05-11T11:04:04.979Z,145
2018-05-11T11:05:06.358Z,155
2018-05-11T11:06:07.750Z,165
2018-05-11T11:07:09.139Z,165
2018-05-11T11:08:10.537Z,165
2018-05-11T11:09:11.932Z,160
2018-05-11T11:10:13.335Z,160
2018-05-11T11:11:14.735Z,150
2018-05-11T11:12:16.125Z,160
2018-05-11T11:13:17.533Z,165
2018-05-11T11:14:18.924Z,175
2018-05-11T11:15:20.315Z,175
2018-05-11T11:16:21.710Z,175
2018-05-11T11:17:23.105Z,170
2018-05-11T11:18:24.500Z,160
2018-05-11T11:19:25.891Z,160
2018-05-11T11:20:27.291Z,155
2018-05-11T11:21:28.663Z,145
2018-05-11T11:22:30.060Z,135
2018-05-11T11:23:31.468Z,135
2018-05-11T11:24:32.855Z,145
2018-05-11T11:25:34.270Z,160
2018-05-11T11:26:35.632Z,160
2018-05-11T11:27:37.024Z,155
2018-05-11T11:28:38.420Z,160
2018-05-11T11:29:39.812Z,140
2018-05-11T11:30:41.208Z,125
2018-05-11T11:31:42.569Z,135
2018-05-11T11:32:43.929Z,150
2018-05-11T11:33:45.339Z,170
2018-05-11T11:34:46.758Z,165
2018-05-11T11:35:48.081Z,155
2018-05-11T11:36:49.480Z,155
2018-05-11T11:37:50.881Z,145
2018-05-11T11:38:52.809Z,145
2018-05-11T11:39:54.241Z,135
2018-05-11T11:40:55.636Z,150
2018-05-11T11:41:57.026Z,155
2018-05-11T11:42:58.437Z,155
2018-05-11T11:43:59.835Z,150
2018-05-11T11:45:01.241Z,140
2018-05-11T11:46:02.636Z,125
2018-05-11T11:47:04.086Z,120
2018-05-11T11:48:05.501Z,110
2018-05-11T11:49:06.947Z,115
2018-05-11T11:50:08.409Z,115
2018-05-11T11:51:09.871Z,115
2018-05-11T11:52:11.309Z,120
2018-05-11T11:53:12.703Z,135
2018-05-11T11:54:14.140Z,155
2018-05-11T11:55:15.604Z,180
2018-05-11T11:56:17.050Z,190
2018-05-11T11:57:18.504Z,180
2018-05-11T11:58:19.947Z,210
2018-05-11T11:59:21.393Z,250
2018-05-11T12:00:22.858Z,260
2018-05-11T12:01:24.923Z,255
2018-05-11T12:02:26.456Z,250
2018-05-11T12:03:27.959Z,235
2018-05-11T12:04:29.386Z,225
2018-05-11T12:05:30.911Z,225
2018-05-11T12:06:32.339Z,210
2018-05-11T12:07:33.797Z,200
2018-05-11T12:08:35.242Z,195
2018-05-11T12:09:36.712Z,190
2018-05-11T12:10:38.214Z,185
2018-05-11T12:11:39.616Z,175
2018-05-11T12:12:41.038Z,165
2018-05-11T12:13:42.437Z,150
2018-05-11T12:14:43.864Z,130
2018-05-11T12:15:45.330Z,115
2018-05-11T12:16:47.498Z,100
2018-05-11T12:17:48.902Z,90
2018-05-11T12:18:51.295Z,80
2018-05-11T12:19:52.858Z,80
2018-05-11T12:20:54.291Z,75
2018-05-11T12:21:55.711Z,75
2018-05-11T12:22:57.178Z,70
2018-05-11T12:23:58.643Z,70
2018-05-11T12:25:00.040Z,65
2018-05-11T12:26:01.544Z,60
2018-05-11T12:27:02.937Z,60
2018-05-11T12:28:04.364Z,60
2018-05-11T12:29:05.998Z,60
2018-05-11T12:30:07.443Z,60
2018-05-11T12:31:08.839Z,60
2018-05-11T12:32:10.243Z,60
2018-05-11T12:33:12.431Z,60
2018-05-11T12:34:13.828Z,60
2018-05-11T12:35:15.252Z,60
2018-05-11T12:36:16.672Z,60
2018-05-11T12:37:18.034Z,60
2018-05-11T12:38:19.441Z,60
2018-05-11T12:39:20.849Z,65
2018-05-11T12:40:22.258Z,70
2018-05-11T12:41:23.659Z,75
2018-05-11T12:42:25.051Z,85
2018-05-11T12:43:26.541Z,85
2018-05-11T12:44:27.964Z,95
2018-05-11T12:45:29.359Z,100
2018-05-11T12:46:30.770Z,110
2018-05-11T12:47:32.182Z,120
2018-05-11T12:48:34.396Z,130
2018-05-11T12:49:35.804Z,140
2018-05-11T12:50:37.238Z,140
2018-05-11T12:51:38.651Z,130
2018-05-11T12:52:40.114Z,125
2018-05-11T12:53:41.506Z,120
2018-05-11T12:54:42.950Z,120
2018-05-11T12:55:44.352Z,115
2018-05-11T12:56:45.775Z,110
2018-05-11T12:57:47.191Z,100
2018-05-11T12:58:48.596Z,100
2018-05-11T12:59:50.159Z,100
2018-05-11T13:00:51.616Z,100
2018-05-11T13:01:53.039Z,95
2018-05-11T13:02:54.458Z,95
2018-05-11T13:03:55.901Z,95
2018-05-11T13:04:57.305Z,75
2018-05-11T13:05:58.705Z,80
2018-05-11T13:07:00.123Z,80
2018-05-11T13:08:01.547Z,80
2018-05-11T13:09:02.974Z,65
2018-05-11T13:10:04.410Z,75
2018-05-11T13:11:05.836Z,75
2018-05-11T13:12:07.249Z,70
2018-05-11T13:13:08.734Z,70
2018-05-11T13:14:10.295Z,65
2018-05-11T13:15:11.703Z,70
2018-05-11T13:16:13.174Z,65
2018-05-11T13:17:14.576Z,65
2018-05-11T13:18:15.949Z,60
2018-05-11T13:19:17.359Z,60
2018-05-11T13:20:18.865Z,55
2018-05-11T13:21:20.312Z,55
2018-05-11T13:22:21.796Z,55
2018-05-11T13:23:23.182Z,50
2018-05-11T13:24:24.592Z,50
2018-05-11T13:25:26.011Z,50
2018-05-11T13:26:27.431Z,50
2018-05-11T13:27:28.834Z,50
2018-05-11T13:28:30.300Z,50
2018-05-11T13:29:31.712Z,50
2018-05-11T13:30:33.203Z,50
2018-05-11T13:31:34.514Z,50
2018-05-11T13:32:35.920Z,55
2018-05-11T13:33:37.322Z,60
2018-05-11T13:34:38.847Z,65
2018-05-11T13:35:40.290Z,65
2018-05-11T13:36:42.637Z,70
2018-05-11T13:37:44.085Z,70
2018-05-11T13:38:45.498Z,70
2018-05-11T13:39:46.947Z,75
2018-05-11T13:40:48.425Z,75
2018-05-11T13:41:49.878Z,75
2018-05-11T13:42:51.365Z,75
2018-05-11T13:43:52.812Z,75
2018-05-11T13:44:54.886Z,80
2018-05-11T13:45:56.316Z,80
2018-05-11T13:46:57.727Z,85
2018-05-11T13:47:59.235Z,85
2018-05-11T13:49:00.658Z,85
2018-05-11T13:50:02.061Z,85
2018-05-11T13:51:03.453Z,85
2018-05-11T13:52:04.878Z,85
2018-05-11T13:53:06.283Z,85
2018-05-11T13:54:07.882Z,85
2018-05-11T13:55:09.323Z,85
2018-05-11T13:56:11.494Z,85
2018-05-11T13:57:12.775Z,85
2018-05-11T13:58:14.209Z,85
2018-05-11T13:59:15.618Z,85
2018-05-11T14:00:17.029Z,85
2018-05-11T14:01:18.422Z,85
2018-05-11T14:02:19.839Z,85
2018-05-11T14:03:21.278Z,85
2018-05-11T14:04:22.667Z,85
2018-05-11T14:05:24.085Z,85
2018-05-11T14:06:25.648Z,85
2018-05-11T14:07:27.008Z,85
2018-05-11T14:08:29.061Z,80
2018-05-11T14:09:31.222Z,80
2018-05-11T14:10:32.700Z,80
2018-05-11T14:11:34.116Z,80
2018-05-11T14:12:35.520Z,80
2018-05-11T14:13:36.960Z,80
2018-05-11T14:14:38.390Z,80
2018-05-11T14:15:39.813Z,80
2018-05-11T14:16:41.239Z,80
2018-05-11T14:17:42.659Z,80
2018-05-11T14:18:44.037Z,80
2018-05-11T14:19:45.479Z,80
2018-05-11T14:20:46.910Z,75
2018-05-11T14:21:48.337Z,75
2018-05-11T14:22:49.762Z,80
2018-05-11T14:23:51.270Z,75
2018-05-11T14:24:54.515Z,75
2018-05-11T14:25:55.891Z,70
2018-05-11T14:26:57.345Z,75
2018-05-11T14:27:58.846Z,65
2018-05-11T14:29:00.322Z,65
2018-05-11T14:30:01.736Z,60
2018-05-11T14:31:03.145Z,60
2018-05-11T14:32:04.647Z,60
2018-05-11T14:33:06.600Z,60
2018-05-11T14:34:08.048Z,60
2018-05-11T14:35:09.477Z,60
2018-05-11T14:36:10.872Z,55
2018-05-11T14:37:12.289Z,55
2018-05-11T14:38:14.002Z,60
2018-05-11T14:39:15.464Z,60
2018-05-11T14:40:17.406Z,60